createdAt,value
2019-01-11T00:00:27.776Z,6.57
2019-01-11T00:02:34.937Z,5.30
2019-01-11T00:04:40.464Z,5.20
2019-01-11T00:06:45.691Z,7.87
2019-01-11T00:08:50.758Z,9.00
2019-01-11T00:10:55.872Z,8.63
2019-01-11T00:13:00.929Z,7.90
2019-01-11T00:15:06.877Z,15.73
2019-01-11T00:17:11.826Z,5.87
2019-01-11T00:19:16.982Z,8.30
2019-01-11T00:21:23.633Z,11.33
2019-01-11T00:23:28.522Z,7.20
2019-01-11T00:25:33.782Z,6.60
2019-01-11T00:27:38.893Z,7.73
2019-01-11T00:29:44.318Z,9.60
2019-01-11T00:31:49.493Z,8.83
2019-01-11T00:33:54.604Z,8.43
2019-01-11T00:35:59.655Z,8.40
2019-01-11T00:38:04.904Z,9.57
2019-01-11T00:40:10.053Z,9.67
2019-01-11T00:42:15.636Z,6.00
2019-01-11T00:44:20.662Z,6.33
2019-01-11T00:46:25.733Z,7.70
2019-01-11T00:48:31.714Z,10.87
2019-01-11T00:50:36.944Z,4.97
2019-01-11T00:52:42.561Z,5.00
2019-01-11T00:54:47.664Z,5.30
2019-01-11T00:56:58.073Z,5.90
2019-01-11T00:59:03.788Z,4.40
2019-01-11T01:01:09.713Z,5.07
2019-01-11T01:03:16.238Z,6.50
2019-01-11T01:05:22.300Z,7.87
2019-01-11T01:07:29.016Z,5.73
2019-01-11T01:09:34.558Z,5.53
2019-01-11T01:11:42.797Z,7.23
2019-01-11T01:13:48.399Z,5.80
2019-01-11T01:15:53.768Z,6.63
2019-01-11T01:18:01.464Z,6.53
2019-01-11T01:20:08.084Z,7.60
2019-01-11T01:22:13.519Z,6.80
2019-01-11T01:24:18.622Z,10.13
2019-01-11T01:26:23.717Z,7.87
2019-01-11T01:28:32.417Z,12.07
2019-01-11T01:30:37.644Z,9.07
2019-01-11T01:32:42.682Z,10.17
2019-01-11T01:34:47.552Z,13.87
2019-01-11T01:36:52.814Z,14.50
2019-01-11T01:38:57.918Z,12.13
2019-01-11T01:41:03.711Z,14.37
2019-01-11T01:43:08.997Z,12.47
2019-01-11T01:45:15.430Z,16.40
2019-01-11T01:47:21.167Z,16.10
2019-01-11T01:49:26.684Z,14.50
2019-01-11T01:51:31.976Z,14.73
2019-01-11T01:53:37.257Z,13.30
2019-01-11T01:55:42.125Z,13.07
2019-01-11T01:57:49.850Z,13.57
2019-01-11T01:59:56.174Z,13.20
2019-01-11T02:02:01.404Z,16.70
2019-01-11T02:04:06.508Z,16.13
2019-01-11T02:06:11.372Z,15.77
2019-01-11T02:08:16.772Z,15.70
2019-01-11T02:10:21.745Z,15.80
2019-01-11T02:12:26.673Z,12.67
2019-01-11T02:14:31.884Z,13.27
2019-01-11T02:16:36.657Z,12.00
2019-01-11T02:18:41.526Z,18.57
2019-01-11T02:20:46.387Z,13.53
2019-01-11T02:22:51.185Z,12.70
2019-01-11T02:24:56.265Z,13.20
2019-01-11T02:27:04.459Z,14.13
2019-01-11T02:29:09.282Z,14.80
2019-01-11T02:31:14.661Z,11.53
2019-01-11T02:33:24.817Z,13.40
2019-01-11T02:35:26.253Z,14.47
2019-01-11T02:37:31.453Z,16.60
2019-01-11T02:39:36.328Z,16.47
2019-01-11T02:41:41.440Z,14.27
2019-01-11T02:43:46.575Z,14.60
2019-01-11T02:45:51.659Z,17.37
2019-01-11T02:47:56.773Z,17.63
2019-01-11T02:50:02.720Z,15.13
2019-01-11T02:52:07.682Z,19.60
2019-01-11T02:54:13.524Z,15.07
2019-01-11T02:56:18.341Z,17.10
2019-01-11T02:58:23.132Z,15.07
2019-01-11T03:00:28.205Z,15.93
2019-01-11T03:02:33.043Z,17.13
2019-01-11T03:04:37.842Z,17.03
2019-01-11T03:06:42.625Z,18.53
2019-01-11T03:08:47.367Z,16.93
2019-01-11T03:10:52.666Z,16.40
2019-01-11T03:12:57.850Z,17.20
2019-01-11T03:15:02.981Z,17.13
2019-01-11T03:17:07.795Z,15.57
2019-01-11T03:19:12.534Z,16.07
2019-01-11T03:21:17.342Z,18.43
2019-01-11T03:23:22.272Z,17.43
2019-01-11T03:25:27.050Z,16.43
2019-01-11T03:27:32.170Z,15.50
2019-01-11T03:29:36.970Z,15.77
2019-01-11T03:31:41.811Z,17.60
2019-01-11T03:33:46.585Z,17.93
2019-01-11T03:35:51.400Z,14.20
2019-01-11T03:37:56.453Z,14.60
2019-01-11T03:40:01.240Z,15.37
2019-01-11T03:42:13.142Z,16.77
2019-01-11T03:44:18.643Z,15.23
2019-01-11T03:46:23.982Z,14.77
2019-01-11T03:48:29.492Z,16.50
2019-01-11T03:50:34.900Z,15.63
2019-01-11T03:52:40.293Z,15.87
2019-01-11T03:54:45.679Z,16.23
2019-01-11T03:56:51.034Z,15.50
2019-01-11T03:58:57.230Z,15.83
2019-01-11T04:01:02.104Z,17.30
2019-01-11T04:03:07.468Z,16.07
2019-01-11T04:05:13.805Z,17.60
2019-01-11T04:07:18.831Z,15.77
2019-01-11T04:09:24.615Z,14.90
2019-01-11T04:11:30.327Z,15.47
2019-01-11T04:13:35.721Z,17.87
2019-01-11T04:15:40.797Z,18.33
2019-01-11T04:17:47.585Z,18.03
2019-01-11T04:19:52.619Z,19.00
2019-01-11T04:22:18.777Z,17.37
2019-01-11T04:24:25.041Z,18.03
2019-01-11T04:26:30.051Z,16.40
2019-01-11T04:28:35.549Z,19.63
2019-01-11T04:30:42.823Z,19.87
2019-01-11T04:32:47.944Z,19.30
2019-01-11T04:34:53.200Z,18.03
2019-01-11T04:36:58.264Z,18.37
2019-01-11T04:39:04.371Z,17.23
2019-01-11T04:41:09.352Z,19.77
2019-01-11T04:43:14.139Z,19.07
2019-01-11T04:45:19.012Z,18.50
2019-01-11T04:47:24.734Z,19.60
2019-01-11T04:49:29.497Z,20.27
2019-01-11T04:51:34.437Z,19.07
2019-01-11T04:53:39.951Z,20.27
2019-01-11T04:55:45.067Z,20.83
2019-01-11T04:57:50.276Z,23.97
2019-01-11T04:59:55.402Z,21.90
2019-01-11T05:02:01.362Z,20.00
2019-01-11T05:04:06.724Z,22.37
2019-01-11T05:06:12.169Z,27.07
2019-01-11T05:08:17.443Z,23.40
2019-01-11T05:10:22.679Z,22.90
2019-01-11T05:12:27.669Z,24.80
2019-01-11T05:14:32.552Z,24.17
2019-01-11T05:16:39.582Z,30.27
2019-01-11T05:18:44.938Z,27.33
2019-01-11T05:20:50.010Z,29.87
2019-01-11T05:22:54.895Z,26.37
2019-01-11T05:24:59.974Z,27.07
2019-01-11T05:27:05.222Z,28.90
2019-01-11T05:29:10.642Z,29.47
2019-01-11T05:31:15.486Z,29.17
2019-01-11T05:33:20.629Z,31.37
2019-01-11T05:35:25.520Z,31.73
2019-01-11T05:37:30.735Z,31.37
2019-01-11T05:39:35.866Z,29.10
2019-01-11T05:41:41.293Z,27.70
2019-01-11T05:43:46.418Z,26.07
2019-01-11T05:45:51.155Z,31.20
2019-01-11T05:47:55.920Z,29.60
2019-01-11T05:50:01.111Z,35.13
2019-01-11T05:52:06.354Z,32.03
2019-01-11T05:54:11.263Z,31.50
2019-01-11T05:56:20.783Z,34.00
2019-01-11T05:58:33.587Z,33.47
2019-01-11T06:00:38.427Z,33.87
2019-01-11T06:02:43.285Z,31.17
2019-01-11T06:04:49.654Z,39.30
2019-01-11T06:07:22.751Z,35.03
2019-01-11T06:09:27.771Z,34.30
2019-01-11T06:11:32.828Z,34.47
2019-01-11T06:13:38.253Z,34.33
2019-01-11T06:15:44.263Z,32.60
2019-01-11T06:17:49.055Z,34.03
2019-01-11T06:19:53.961Z,31.77
2019-01-11T06:21:58.865Z,37.43
2019-01-11T06:24:03.673Z,38.03
2019-01-11T06:26:08.622Z,38.93
2019-01-11T06:28:13.421Z,42.77
2019-01-11T06:30:18.533Z,42.00
2019-01-11T06:32:23.775Z,37.00
2019-01-11T06:34:28.924Z,42.73
2019-01-11T06:36:33.820Z,36.97
2019-01-11T06:38:38.670Z,51.50
2019-01-11T06:40:43.457Z,37.03
2019-01-11T06:42:48.661Z,43.90
2019-01-11T06:44:53.491Z,37.50
2019-01-11T06:46:58.486Z,39.77
2019-01-11T06:49:03.763Z,37.13
2019-01-11T06:51:08.766Z,39.33
2019-01-11T06:53:14.378Z,35.83
2019-01-11T06:55:19.144Z,38.27
2019-01-11T06:57:24.004Z,37.60
2019-01-11T06:59:29.245Z,38.63
2019-01-11T07:01:34.400Z,45.30
2019-01-11T07:03:39.223Z,39.93
2019-01-11T07:05:44.060Z,44.60
2019-01-11T07:07:48.822Z,39.37
2019-01-11T07:09:53.630Z,39.73
2019-01-11T07:11:59.175Z,43.73
2019-01-11T07:14:04.149Z,50.40
2019-01-11T07:16:09.605Z,39.90
2019-01-11T07:18:15.538Z,43.73
2019-01-11T07:20:20.349Z,40.80
2019-01-11T07:22:25.526Z,41.63
2019-01-11T07:24:30.405Z,44.93
2019-01-11T07:26:35.230Z,47.27
2019-01-11T07:28:40.038Z,44.50
2019-01-11T07:31:15.747Z,43.50
2019-01-11T07:33:22.235Z,45.37
2019-01-11T07:35:35.628Z,43.37
2019-01-11T07:37:40.417Z,50.43
2019-01-11T07:39:45.240Z,43.00
2019-01-11T07:41:50.338Z,42.80
2019-01-11T07:43:55.123Z,55.27
2019-01-11T07:45:59.898Z,56.43
2019-01-11T07:48:04.975Z,88.80
2019-01-11T07:50:10.754Z,64.43
2019-01-11T07:52:16.173Z,38.73
2019-01-11T07:54:21.837Z,35.00
2019-01-11T07:56:27.125Z,36.80
2019-01-11T07:58:32.774Z,47.43
2019-01-11T08:00:38.347Z,39.07
2019-01-11T08:02:43.509Z,41.37
2019-01-11T08:04:48.296Z,42.10
2019-01-11T08:06:53.608Z,38.43
2019-01-11T08:08:58.484Z,41.47
2019-01-11T08:11:03.592Z,44.37
2019-01-11T08:13:08.878Z,42.07
2019-01-11T08:15:16.275Z,45.67
2019-01-11T08:17:21.259Z,35.87
2019-01-11T08:19:26.129Z,53.97
2019-01-11T08:21:31.278Z,47.03
2019-01-11T08:23:37.645Z,52.43
2019-01-11T08:25:42.726Z,47.50
2019-01-11T08:27:54.473Z,40.33
2019-01-11T08:29:59.550Z,38.87
2019-01-11T08:32:04.297Z,41.57
2019-01-11T08:34:09.650Z,43.33
2019-01-11T08:36:14.735Z,44.67
2019-01-11T08:38:19.557Z,54.03
2019-01-11T08:40:24.345Z,44.90
2019-01-11T08:42:30.156Z,43.10
2019-01-11T08:44:35.272Z,53.50
2019-01-11T08:46:40.131Z,52.27
2019-01-11T08:48:45.036Z,47.20
2019-01-11T08:50:49.859Z,48.60
2019-01-11T08:52:54.695Z,51.10
2019-01-11T08:54:59.495Z,53.60
2019-01-11T08:57:05.341Z,60.63
2019-01-11T08:59:10.221Z,63.93
2019-01-11T09:01:15.287Z,133.27
2019-01-11T09:03:20.126Z,70.00
2019-01-11T09:05:24.912Z,74.93
2019-01-11T09:07:30.064Z,61.73
2019-01-11T09:09:37.374Z,66.73
2019-01-11T09:11:42.091Z,54.97
2019-01-11T09:13:47.140Z,55.77
2019-01-11T09:15:52.006Z,54.50
2019-01-11T09:18:02.962Z,58.50
2019-01-11T09:20:08.014Z,56.30
2019-01-11T09:22:12.732Z,59.47
2019-01-11T09:24:17.625Z,52.73
2019-01-11T09:26:22.637Z,55.37
2019-01-11T09:28:27.628Z,55.73
2019-01-11T09:30:32.665Z,52.70
2019-01-11T09:32:37.492Z,62.13
2019-01-11T09:34:44.089Z,55.97
2019-01-11T09:36:49.214Z,54.57
2019-01-11T09:38:53.965Z,52.27
2019-01-11T09:40:58.745Z,55.27
2019-01-11T09:43:03.521Z,59.93
2019-01-11T09:45:08.446Z,59.70
2019-01-11T09:47:13.208Z,61.73
2019-01-11T09:49:18.051Z,64.67
2019-01-11T09:51:26.228Z,63.60
2019-01-11T09:53:30.985Z,63.27
2019-01-11T09:55:35.689Z,65.17
2019-01-11T09:57:40.844Z,62.87
2019-01-11T09:59:45.571Z,74.27
2019-01-11T10:02:02.951Z,83.03
2019-01-11T10:04:09.273Z,92.97
2019-01-11T10:06:14.015Z,127.73
2019-01-11T10:08:18.761Z,112.53
2019-01-11T10:10:23.524Z,113.10
2019-01-11T10:12:28.504Z,92.57
2019-01-11T10:14:33.547Z,73.60
2019-01-11T10:16:38.278Z,78.73
2019-01-11T10:18:43.145Z,68.90
2019-01-11T10:20:49.858Z,72.30
2019-01-11T10:22:56.961Z,70.30
2019-01-11T10:25:01.705Z,77.10
2019-01-11T10:27:06.768Z,66.03
2019-01-11T10:29:11.713Z,60.53
2019-01-11T10:31:16.466Z,66.17
2019-01-11T10:33:22.813Z,57.57
2019-01-11T10:35:27.879Z,66.80
2019-01-11T10:37:33.326Z,64.40
2019-01-11T10:39:38.200Z,65.43
2019-01-11T10:41:43.307Z,68.47
2019-01-11T10:43:49.147Z,69.23
2019-01-11T10:45:54.055Z,71.20
2019-01-11T10:48:01.480Z,73.90
2019-01-11T10:50:09.448Z,85.83
2019-01-11T10:52:14.367Z,74.53
2019-01-11T10:54:31.234Z,69.47
2019-01-11T10:56:36.681Z,97.03
2019-01-11T10:58:41.436Z,82.80
2019-01-11T11:00:46.206Z,89.87
2019-01-11T11:02:52.016Z,71.33
2019-01-11T11:04:56.797Z,63.17
2019-01-11T11:07:01.924Z,70.90
2019-01-11T11:09:08.428Z,71.93
2019-01-11T11:11:16.557Z,77.10
2019-01-11T11:13:20.303Z,65.10
2019-01-11T11:15:25.496Z,79.60
2019-01-11T11:17:30.278Z,87.90
2019-01-11T11:19:35.073Z,138.20
2019-01-11T11:21:39.818Z,112.00
2019-01-11T11:23:44.945Z,83.70
2019-01-11T11:25:49.837Z,70.70
2019-01-11T11:27:54.629Z,74.43
2019-01-11T11:29:59.400Z,70.63
2019-01-11T11:32:04.332Z,75.23
2019-01-11T11:34:09.522Z,66.80
2019-01-11T11:36:14.299Z,80.43
2019-01-11T11:38:19.064Z,85.23
2019-01-11T11:40:24.050Z,70.10
2019-01-11T11:42:28.801Z,78.70
2019-01-11T11:44:36.526Z,76.83
2019-01-11T11:46:41.280Z,69.70
2019-01-11T11:48:46.019Z,63.87
2019-01-11T11:50:50.931Z,64.33
2019-01-11T11:52:55.766Z,66.53
2019-01-11T11:55:00.528Z,65.67
2019-01-11T11:57:05.374Z,50.73
2019-01-11T11:59:10.227Z,53.73
2019-01-11T12:01:14.990Z,45.27
2019-01-11T12:03:19.755Z,50.97
2019-01-11T12:05:24.806Z,53.60
2019-01-11T12:07:29.576Z,48.50
2019-01-11T12:09:34.686Z,48.53
2019-01-11T12:11:39.701Z,45.60
2019-01-11T12:13:44.496Z,47.57
2019-01-11T12:15:49.650Z,57.30
2019-01-11T12:17:54.383Z,86.53
2019-01-11T12:19:59.208Z,81.10
2019-01-11T12:22:04.501Z,63.10
2019-01-11T12:24:09.324Z,64.50
2019-01-11T12:26:15.881Z,90.87
2019-01-11T12:28:20.629Z,86.57
2019-01-11T12:30:26.642Z,84.63
2019-01-11T12:32:31.903Z,71.63
2019-01-11T12:34:38.633Z,53.20
2019-01-11T12:36:44.073Z,58.30
2019-01-11T12:38:50.227Z,65.60
2019-01-11T12:40:56.520Z,67.63
2019-01-11T12:43:03.270Z,53.20
2019-01-11T12:45:10.064Z,57.37
2019-01-11T12:47:15.096Z,54.30
2019-01-11T12:49:20.484Z,51.87
2019-01-11T12:51:25.276Z,51.53
2019-01-11T12:53:48.360Z,50.33
2019-01-11T12:55:53.468Z,38.50
2019-01-11T12:57:58.532Z,32.30
2019-01-11T13:00:03.356Z,25.03
2019-01-11T13:02:08.651Z,30.23
2019-01-11T13:04:13.523Z,19.20
2019-01-11T13:06:18.497Z,22.43
2019-01-11T13:08:23.335Z,23.37
2019-01-11T13:10:28.752Z,20.30
2019-01-11T13:12:33.587Z,22.17
2019-01-11T13:14:38.822Z,22.23
2019-01-11T13:16:43.892Z,17.97
2019-01-11T13:18:49.288Z,25.70
2019-01-11T13:20:54.820Z,22.30
2019-01-11T13:22:59.742Z,18.20
2019-01-11T13:25:04.747Z,23.83
2019-01-11T13:27:09.547Z,40.83
2019-01-11T13:29:14.326Z,26.20
2019-01-11T13:31:19.631Z,26.70
2019-01-11T13:33:24.822Z,25.07
2019-01-11T13:35:31.128Z,27.97
2019-01-11T13:37:36.896Z,25.80
2019-01-11T13:39:42.685Z,26.70
2019-01-11T13:41:48.708Z,22.60
2019-01-11T13:43:54.380Z,24.27
2019-01-11T13:45:59.258Z,24.77
2019-01-11T13:48:04.785Z,23.03
2019-01-11T13:50:29.893Z,24.10
2019-01-11T13:52:34.962Z,41.57
2019-01-11T13:54:40.874Z,22.07
2019-01-11T13:56:45.720Z,19.73
2019-01-11T13:58:51.201Z,23.53
2019-01-11T14:00:56.464Z,18.10
2019-01-11T14:03:01.568Z,19.60
2019-01-11T14:05:06.726Z,18.23
2019-01-11T14:07:11.526Z,20.20
2019-01-11T14:09:16.313Z,15.63
2019-01-11T14:11:21.241Z,17.93
2019-01-11T14:13:26.187Z,20.57
2019-01-11T14:15:58.720Z,19.10
2019-01-11T14:18:07.846Z,19.40
2019-01-11T14:20:12.968Z,14.07
2019-01-11T14:22:18.347Z,18.60
2019-01-11T14:24:23.139Z,18.53
2019-01-11T14:26:28.220Z,20.90
2019-01-11T14:28:32.930Z,20.47
2019-01-11T14:30:38.076Z,11.63
2019-01-11T14:32:43.085Z,15.70
2019-01-11T14:34:48.450Z,15.23
2019-01-11T14:36:55.905Z,17.33
2019-01-11T14:39:00.774Z,16.70
2019-01-11T14:41:05.831Z,13.30
2019-01-11T14:43:11.005Z,14.97
2019-01-11T14:45:16.896Z,15.87
2019-01-11T14:47:21.849Z,15.57
2019-01-11T14:49:26.652Z,19.47
2019-01-11T14:51:33.974Z,17.83
2019-01-11T14:53:38.799Z,19.33
2019-01-11T14:55:46.723Z,16.73
2019-01-11T14:57:54.651Z,17.87
2019-01-11T14:59:59.778Z,16.13
2019-01-11T15:02:04.827Z,11.10
2019-01-11T15:04:09.957Z,12.60
2019-01-11T15:06:17.089Z,13.83
2019-01-11T15:08:21.792Z,13.37
2019-01-11T15:10:29.189Z,21.73
2019-01-11T15:12:34.315Z,14.33
2019-01-11T15:14:40.345Z,20.60
2019-01-11T15:16:45.263Z,16.83
2019-01-11T15:18:50.238Z,14.73
2019-01-11T15:20:55.359Z,15.47
2019-01-11T15:23:00.072Z,16.73
2019-01-11T15:25:05.685Z,16.37
2019-01-11T15:27:42.804Z,18.40
2019-01-11T15:29:48.028Z,20.70
2019-01-11T15:31:58.388Z,17.33
2019-01-11T15:34:03.441Z,16.30
2019-01-11T15:36:08.118Z,12.43
2019-01-11T15:38:13.215Z,10.60
2019-01-11T15:40:21.193Z,10.20
2019-01-11T15:42:26.260Z,14.57
2019-01-11T15:44:32.270Z,15.17
2019-01-11T15:46:36.980Z,17.23
2019-01-11T15:48:44.687Z,24.33
2019-01-11T15:50:57.782Z,29.57
2019-01-11T15:53:02.553Z,15.23
2019-01-11T15:55:09.108Z,14.43
2019-01-11T15:57:14.093Z,13.00
2019-01-11T15:59:18.887Z,10.40
2019-01-11T16:01:24.082Z,13.03
2019-01-11T16:03:28.835Z,16.10
2019-01-11T16:05:34.085Z,14.10
2019-01-11T16:07:39.384Z,17.63
2019-01-11T16:10:01.165Z,15.67
2019-01-11T16:12:10.927Z,16.80
2019-01-11T16:14:46.912Z,11.73
2019-01-11T16:17:16.393Z,16.37
2019-01-11T16:19:24.153Z,13.63
2019-01-11T16:21:28.928Z,13.70
2019-01-11T16:23:33.684Z,14.73
2019-01-11T16:25:38.648Z,12.93
2019-01-11T16:27:43.805Z,14.73
2019-01-11T16:29:48.599Z,13.83
2019-01-11T16:31:53.345Z,11.83
2019-01-11T16:33:58.242Z,17.73
2019-01-11T16:36:03.054Z,9.90
2019-01-11T16:38:07.793Z,12.93
2019-01-11T16:40:13.031Z,11.80
2019-01-11T16:42:19.718Z,12.07
2019-01-11T16:44:24.533Z,13.47
2019-01-11T16:46:29.429Z,24.70
2019-01-11T16:48:34.795Z,34.50
2019-01-11T16:50:39.628Z,25.10
2019-01-11T16:52:46.477Z,16.17
2019-01-11T16:54:51.066Z,11.80
2019-01-11T16:56:55.882Z,16.33
2019-01-11T16:59:00.729Z,19.10
2019-01-11T17:01:05.799Z,13.53
2019-01-11T17:03:10.723Z,9.93
2019-01-11T17:05:16.066Z,14.33
2019-01-11T17:07:20.847Z,19.00
2019-01-11T17:09:25.971Z,18.87
2019-01-11T17:11:31.857Z,18.00
2019-01-11T17:13:40.512Z,17.43
2019-01-11T17:15:44.186Z,22.07
2019-01-11T17:17:49.403Z,20.93
2019-01-11T17:19:54.887Z,22.53
2019-01-11T17:21:59.741Z,26.80
2019-01-11T17:24:05.154Z,29.20
2019-01-11T17:26:10.162Z,25.97
2019-01-11T17:28:15.505Z,22.30
2019-01-11T17:30:20.561Z,28.50
2019-01-11T17:32:25.312Z,29.17
2019-01-11T17:34:30.590Z,24.50
2019-01-11T17:36:35.438Z,25.73
2019-01-11T17:38:40.228Z,23.97
2019-01-11T17:40:45.200Z,24.23
2019-01-11T17:42:50.289Z,29.13
2019-01-11T17:44:55.138Z,19.77
2019-01-11T17:47:00.334Z,19.90
2019-01-11T17:49:05.810Z,23.87
2019-01-11T17:51:10.618Z,28.53
2019-01-11T17:53:15.515Z,22.13
2019-01-11T17:55:20.482Z,26.27
2019-01-11T17:57:26.069Z,22.13
2019-01-11T17:59:31.220Z,26.13
2019-01-11T18:01:36.035Z,27.90
2019-01-11T18:03:40.815Z,30.20
2019-01-11T18:05:46.706Z,24.37
2019-01-11T18:07:51.858Z,19.80
2019-01-11T18:09:57.000Z,24.03
2019-01-11T18:12:02.395Z,20.40
2019-01-11T18:14:07.940Z,22.17
2019-01-11T18:16:13.185Z,19.93
2019-01-11T18:18:18.188Z,27.13
2019-01-11T18:20:25.609Z,18.60
2019-01-11T18:22:32.485Z,19.40
2019-01-11T18:24:37.658Z,44.17
2019-01-11T18:26:42.484Z,38.40
2019-01-11T18:28:47.385Z,22.60
2019-01-11T18:30:52.426Z,26.13
2019-01-11T18:32:57.375Z,20.87
2019-01-11T18:35:11.352Z,22.63
2019-01-11T18:37:59.684Z,20.87
2019-01-11T18:41:19.042Z,24.87
2019-01-11T18:43:46.643Z,20.13
2019-01-11T18:47:07.672Z,22.00
2019-01-11T18:49:45.918Z,22.20
2019-01-11T18:55:26.236Z,23.87
2019-01-11T18:57:38.729Z,20.30
2019-01-11T19:00:10.041Z,16.90
2019-01-11T19:02:15.074Z,15.47
2019-01-11T19:04:52.838Z,15.27
2019-01-11T19:07:45.693Z,14.13
2019-01-11T19:17:36.292Z,17.07
2019-01-11T19:20:58.698Z,16.47
2019-01-11T19:23:52.169Z,19.17
2019-01-11T19:26:07.773Z,16.40
2019-01-11T19:29:27.910Z,18.03
2019-01-11T19:32:49.436Z,20.83
2019-01-11T19:36:08.199Z,17.73
2019-01-11T19:37:56.497Z,22.77
2019-01-11T19:40:02.010Z,22.30
2019-01-11T19:42:09.555Z,18.93
2019-01-11T19:44:51.133Z,24.00
2019-01-11T19:47:44.668Z,18.57
2019-01-11T19:50:39.149Z,26.03
2019-01-11T19:54:15.301Z,19.73
2019-01-11T19:56:41.743Z,24.13
2019-01-11T19:59:39.907Z,26.23
2019-01-11T20:02:09.764Z,22.10
2019-01-11T20:04:15.628Z,25.53
2019-01-11T20:10:20.719Z,24.13
2019-01-11T20:12:15.336Z,30.67
2019-01-11T20:15:21.823Z,28.30
2019-01-11T20:18:22.762Z,29.97
2019-01-11T20:21:32.167Z,28.57
2019-01-11T20:24:10.168Z,25.57
2019-01-11T20:26:13.444Z,31.70
2019-01-11T20:28:18.315Z,24.83
2019-01-11T20:31:04.519Z,25.13
2019-01-11T20:33:13.141Z,26.40
2019-01-11T20:35:20.366Z,31.13
2019-01-11T20:38:12.876Z,28.97
2019-01-11T20:41:30.935Z,33.83
2019-01-11T20:44:12.261Z,30.23
2019-01-11T20:46:46.658Z,29.33
2019-01-11T20:49:48.385Z,33.33
2019-01-11T20:52:05.604Z,28.57
2019-01-11T20:55:39.500Z,22.30
2019-01-11T20:57:43.439Z,27.40
2019-01-11T21:00:47.096Z,33.90
2019-01-11T21:06:02.586Z,25.30
2019-01-11T21:08:10.775Z,23.47
2019-01-11T21:10:16.771Z,27.30
2019-01-11T21:14:52.183Z,20.10
2019-01-11T21:17:20.088Z,24.90
2019-01-11T21:19:25.089Z,23.93
2019-01-11T21:25:38.499Z,31.30
2019-01-11T21:29:04.201Z,25.53
2019-01-11T21:31:07.932Z,24.67
2019-01-11T21:33:21.340Z,20.33
2019-01-11T21:35:39.741Z,25.40
2019-01-11T21:37:45.038Z,23.53
2019-01-11T21:44:02.761Z,20.00
2019-01-11T21:51:56.317Z,25.83
2019-01-11T21:55:00.188Z,20.43
2019-01-11T21:57:14.832Z,20.00
2019-01-11T21:59:20.604Z,25.17
2019-01-11T22:01:25.990Z,24.70
2019-01-11T22:03:31.551Z,22.03
2019-01-11T22:05:36.804Z,18.93
2019-01-11T22:07:42.106Z,32.83
2019-01-11T22:09:50.522Z,25.00
2019-01-11T22:12:08.837Z,20.03
2019-01-11T22:14:18.670Z,19.00
2019-01-11T22:16:25.988Z,23.10
2019-01-11T22:18:31.837Z,19.70
2019-01-11T22:20:45.062Z,28.00
2019-01-11T22:22:59.862Z,26.37
2019-01-11T22:25:05.700Z,25.53
2019-01-11T22:27:11.268Z,23.13
2019-01-11T22:29:16.318Z,14.77
2019-01-11T22:31:22.319Z,15.37
2019-01-11T22:33:27.796Z,21.57
2019-01-11T22:35:34.669Z,22.17
2019-01-11T22:37:42.883Z,21.80
2019-01-11T22:39:47.660Z,26.93
2019-01-11T22:41:52.743Z,20.00
2019-01-11T22:43:57.764Z,22.13
2019-01-11T22:46:02.598Z,19.60
2019-01-11T22:48:07.501Z,21.50
2019-01-11T22:50:15.026Z,16.90
2019-01-11T22:52:22.336Z,28.33
2019-01-11T22:54:28.162Z,26.10
2019-01-11T22:56:33.068Z,19.10
2019-01-11T22:58:38.878Z,29.20
2019-01-11T23:01:26.142Z,19.63
2019-01-11T23:03:54.959Z,24.60
2019-01-11T23:06:09.934Z,17.87
2019-01-11T23:08:18.850Z,16.03
2019-01-11T23:11:13.795Z,17.97
2019-01-11T23:13:19.355Z,16.97
2019-01-11T23:15:54.023Z,19.10
2019-01-11T23:18:02.074Z,15.93
2019-01-11T23:20:13.939Z,19.40
2019-01-11T23:22:22.346Z,14.20
2019-01-11T23:24:30.055Z,12.43
2019-01-11T23:26:35.393Z,15.60
2019-01-11T23:28:49.004Z,13.20
2019-01-11T23:30:54.313Z,13.17
2019-01-11T23:33:00.624Z,9.57
2019-01-11T23:35:15.335Z,12.07
2019-01-11T23:37:20.444Z,13.30
2019-01-11T23:39:25.241Z,12.23
2019-01-11T23:41:30.510Z,10.43
2019-01-11T23:43:35.705Z,11.83
2019-01-11T23:45:40.566Z,13.80
2019-01-11T23:47:45.401Z,13.37
2019-01-11T23:49:56.518Z,12.23
2019-01-11T23:52:02.727Z,24.13
2019-01-11T23:54:10.453Z,13.07
2019-01-11T23:56:15.326Z,13.30
2019-01-11T23:58:20.244Z,14.53
